Time;durP1;ratioP1;P1;durP2;ratioP2;P2;SDS_P1;SDS_P2;PMS_P1;PMS_P2;Temp;Humidity;BMP_temperature;BMP_pressure;BME280_temperature;BME280_humidity;BME280_pressure;Samples;Min_cycle;Max_cycle;Signal;HPM_P1;HPM_P2
2021/09/04 00:01:18;;;;;;;10.95;6.82;;;384.40;2329.60;;;;;;5013207;28;20021;-80
2021/09/04 00:03:44;;;;;;;12.13;7.25;;;384.40;2329.60;;;;;;5013500;28;20029;-79
2021/09/04 00:06:10;;;;;;;11.27;6.95;;;384.40;2329.60;;;;;;5013619;28;20057;-79
2021/09/04 00:08:37;;;;;;;12.23;6.88;;;384.20;2329.60;;;;;;5013109;28;20026;-81
2021/09/04 00:11:03;;;;;;;11.30;7.00;;;384.70;2329.60;;;;;;5013287;28;20112;-84
2021/09/04 00:13:29;;;;;;;9.60;7.20;;;384.50;2329.60;;;;;;5013232;28;20126;-83
2021/09/04 00:15:56;;;;;;;8.93;6.85;;;384.50;2329.60;;;;;;5014276;28;20088;-83
2021/09/04 00:18:22;;;;;;;12.48;8.20;;;384.40;2329.60;;;;;;5013465;28;20052;-82
2021/09/04 00:20:47;;;;;;;9.85;7.82;;;384.20;2329.60;;;;;;5013245;28;20451;-83
2021/09/04 00:23:13;;;;;;;13.15;7.80;;;384.10;2329.60;;;;;;5013218;28;20030;-81
2021/09/04 00:25:42;;;;;;;11.77;6.90;;;384.00;2329.60;;;;;;5013114;28;20018;-82
2021/09/04 00:28:08;;;;;;;12.38;7.63;;;384.00;2329.60;;;;;;5012476;28;20022;-82
2021/09/04 00:30:34;;;;;;;13.10;7.97;;;384.00;2329.60;;;;;;5014813;28;20038;-82
2021/09/04 00:33:00;;;;;;;14.60;7.20;;;384.10;2329.60;;;;;;4996534;28;20061;-83
2021/09/04 00:35:26;;;;;;;10.85;7.13;;;384.20;2329.60;;;;;;5012905;28;20057;-82
2021/09/04 00:37:52;;;;;;;10.90;7.80;;;384.20;2329.60;;;;;;5012479;28;20030;-80
2021/09/04 00:40:18;;;;;;;12.88;7.63;;;384.00;2329.60;;;;;;5013181;28;20032;-82
2021/09/04 00:42:44;;;;;;;13.48;7.43;;;384.10;2329.60;;;;;;5012934;28;20033;-82
2021/09/04 00:45:10;;;;;;;12.20;6.30;;;384.00;2329.60;;;;;;5012539;28;20077;-83
2021/09/04 00:47:36;;;;;;;9.68;6.63;;;384.00;2329.60;;;;;;5012882;28;20466;-79
2021/09/04 00:50:03;;;;;;;13.30;7.30;;;359.00;2329.60;;;;;;5012563;28;20121;-82
2021/09/04 00:52:29;;;;;;;13.30;6.93;;;384.00;2329.60;;;;;;5012726;28;20025;-81
2021/09/04 00:54:55;;;;;;;11.02;6.15;;;359.30;2329.60;;;;;;5012733;28;20026;-80
2021/09/04 00:57:21;;;;;;;9.10;6.60;;;384.10;2329.60;;;;;;5012440;28;20037;-81
2021/09/04 00:59:47;;;;;;;8.57;6.38;;;384.10;2329.60;;;;;;5012717;28;20350;-84
2021/09/04 01:02:13;;;;;;;7.75;5.95;;;384.00;2329.60;;;;;;5012747;28;20084;-81
2021/09/04 01:04:39;;;;;;;9.23;6.63;;;384.00;2329.60;;;;;;5012680;28;20081;-81
2021/09/04 01:07:05;;;;;;;7.75;6.05;;;384.10;2329.60;;;;;;5012844;28;20377;-83
2021/09/04 01:09:31;;;;;;;8.75;6.13;;;384.00;2329.60;;;;;;5012638;28;20030;-82
2021/09/04 01:11:57;;;;;;;9.18;6.00;;;384.20;2329.60;;;;;;5012293;28;20030;-81
2021/09/04 01:14:23;;;;;;;11.40;6.43;;;384.10;2329.60;;;;;;5012734;28;20030;-82
2021/09/04 01:16:49;;;;;;;10.18;6.85;;;384.00;2329.60;;;;;;5014368;28;20383;-79
2021/09/04 01:19:15;;;;;;;12.88;6.90;;;384.10;2329.60;;;;;;5012611;28;20373;-82
2021/09/04 01:21:41;;;;;;;17.38;11.30;;;384.20;2329.60;;;;;;5014268;28;20105;-82
2021/09/04 01:24:07;;;;;;;15.45;10.30;;;384.30;2329.60;;;;;;5012941;28;20038;-82
2021/09/04 01:26:33;;;;;;;16.70;8.93;;;384.20;2329.60;;;;;;5012721;28;20030;-83
2021/09/04 01:29:00;;;;;;;15.07;9.40;;;359.00;2329.60;;;;;;5012448;28;20061;-82
2021/09/04 01:31:28;;;;;;;11.40;7.55;;;384.00;2329.60;;;;;;5012792;28;20022;-82
2021/09/04 01:33:54;;;;;;;10.18;7.15;;;384.00;2329.60;;;;;;5012679;28;20371;-81
2021/09/04 01:36:35;;;;;;;10.38;6.65;;;384.00;2329.60;;;;;;5013535;28;20030;-83
2021/09/04 01:39:02;;;;;;;9.43;6.35;;;384.10;2329.60;;;;;;5015107;28;20492;-80
2021/09/04 01:41:29;;;;;;;8.82;6.53;;;384.10;2329.60;;;;;;5016547;28;20033;-82
2021/09/04 01:43:56;;;;;;;10.93;6.00;;;384.10;2329.60;;;;;;5017529;28;20021;-81
2021/09/04 01:46:22;;;;;;;7.43;5.63;;;384.20;2329.60;;;;;;5016775;28;20105;-81
2021/09/04 01:48:48;;;;;;;9.50;6.03;;;384.20;2329.60;;;;;;5016101;28;20052;-81
2021/09/04 01:51:14;;;;;;;9.35;5.95;;;384.30;2329.60;;;;;;5016271;28;20461;-80
2021/09/04 01:53:41;;;;;;;9.18;5.80;;;384.30;2329.60;;;;;;5015694;28;20034;-80
2021/09/04 01:56:08;;;;;;;11.98;6.18;;;384.30;2329.60;;;;;;5015927;28;20033;-81
2021/09/04 01:58:34;;;;;;;7.95;5.68;;;384.60;2329.60;;;;;;5015809;28;20026;-81
2021/09/04 02:01:00;;;;;;;7.20;5.53;;;384.30;2329.60;;;;;;5015490;28;20033;-79
2021/09/04 02:03:26;;;;;;;8.93;6.68;;;384.20;2329.60;;;;;;5015763;28;20050;-79
2021/09/04 02:05:52;;;;;;;10.80;6.45;;;384.00;2329.60;;;;;;5015558;28;20038;-80
2021/09/04 02:08:19;;;;;;;12.80;6.15;;;384.10;2329.60;;;;;;5016500;28;20030;-80
2021/09/04 02:10:44;;;;;;;9.32;6.45;;;384.20;2329.60;;;;;;5015669;28;20060;-81
2021/09/04 02:13:10;;;;;;;8.48;4.97;;;384.30;2329.60;;;;;;5016479;28;20054;-83
2021/09/04 02:15:36;;;;;;;10.90;5.78;;;384.30;2329.60;;;;;;5015186;28;20450;-80
2021/09/04 02:18:02;;;;;;;9.50;5.80;;;384.40;2329.60;;;;;;5016159;28;20053;-81
2021/09/04 02:20:28;;;;;;;7.78;5.97;;;384.40;2329.60;;;;;;5016028;28;20022;-80
2021/09/04 02:22:54;;;;;;;7.25;5.60;;;384.30;2329.60;;;;;;5014211;28;20029;-81
2021/09/04 02:25:20;;;;;;;11.43;7.10;;;384.30;2329.60;;;;;;5015014;28;20454;-83
2021/09/04 02:27:45;;;;;;;7.32;5.35;;;384.40;2329.60;;;;;;5014951;28;20125;-82
2021/09/04 02:30:12;;;;;;;10.48;6.32;;;384.40;2329.60;;;;;;5014506;28;20267;-82
2021/09/04 02:32:38;;;;;;;11.32;7.22;;;384.30;2329.60;;;;;;5015836;28;20029;-81
2021/09/04 02:35:05;;;;;;;10.95;7.05;;;359.20;2329.60;;;;;;5014006;28;20079;-82
2021/09/04 02:37:31;;;;;;;13.90;7.05;;;384.10;2329.60;;;;;;5014646;28;20058;-81
2021/09/04 02:39:57;;;;;;;10.05;6.20;;;384.10;2329.60;;;;;;5014627;28;20429;-82
2021/09/04 02:42:23;;;;;;;8.18;6.20;;;384.00;2329.60;;;;;;5014640;28;20113;-81
2021/09/04 02:44:49;;;;;;;12.85;6.90;;;359.20;2329.60;;;;;;5014827;28;20033;-79
2021/09/04 02:47:15;;;;;;;10.13;6.50;;;359.10;2329.60;;;;;;5014741;28;20520;-80
2021/09/04 02:49:40;;;;;;;11.52;7.63;;;358.80;2329.60;;;;;;5013650;28;20030;-83
2021/09/04 02:52:06;;;;;;;9.05;6.55;;;358.70;2329.60;;;;;;5013587;28;20038;-80
2021/09/04 02:54:32;;;;;;;10.65;6.80;;;358.80;2329.60;;;;;;5013988;28;20065;-82
2021/09/04 02:56:58;;;;;;;11.45;7.18;;;358.40;2329.60;;;;;;5015136;28;20083;-81
2021/09/04 02:59:24;;;;;;;9.20;6.30;;;358.60;2329.60;;;;;;5014725;28;20029;-82
2021/09/04 03:01:50;;;;;;;11.55;6.63;;;358.60;2329.60;;;;;;5014684;28;20026;-82
2021/09/04 03:04:15;;;;;;;9.82;6.25;;;358.70;2329.60;;;;;;5014014;28;20355;-81
2021/09/04 03:06:42;;;;;;;9.80;6.43;;;358.70;2329.60;;;;;;5014491;28;20213;-81
2021/09/04 03:09:08;;;;;;;8.18;6.63;;;358.40;2329.60;;;;;;5014877;28;20021;-81
2021/09/04 03:11:37;;;;;;;13.32;7.05;;;358.50;2329.60;;;;;;5014417;28;20025;-82
2021/09/04 03:14:06;;;;;;;11.20;7.45;;;358.50;2329.60;;;;;;5015616;28;20505;-81
2021/09/04 03:16:32;;;;;;;12.15;6.82;;;358.70;2329.60;;;;;;5014413;28;20033;-81
2021/09/04 03:18:58;;;;;;;10.60;6.90;;;358.60;2329.60;;;;;;5015287;28;20022;-82
2021/09/04 03:21:24;;;;;;;11.55;7.70;;;333.70;2329.60;;;;;;5014682;28;20057;-81
2021/09/04 03:23:50;;;;;;;15.93;7.32;;;333.40;2329.60;;;;;;5014740;28;20034;-82
2021/09/04 03:26:15;;;;;;;12.55;7.13;;;333.60;2329.60;;;;;;5013985;28;20466;-83
2021/09/04 03:28:41;;;;;;;10.23;7.00;;;358.40;2329.60;;;;;;5014111;28;20080;-81
2021/09/04 03:31:07;;;;;;;11.38;7.20;;;333.50;2329.60;;;;;;5013740;28;20060;-82
2021/09/04 03:33:34;;;;;;;10.80;7.15;;;333.50;2329.60;;;;;;4998011;28;20054;-81
2021/09/04 03:36:01;;;;;;;10.52;6.55;;;333.70;2329.60;;;;;;5013970;28;20444;-81
2021/09/04 03:38:27;;;;;;;11.05;7.53;;;333.70;2329.60;;;;;;5013775;28;20080;-82
2021/09/04 03:40:53;;;;;;;9.77;7.47;;;333.60;2329.60;;;;;;5014247;28;20030;-80
2021/09/04 03:43:19;;;;;;;9.60;6.78;;;333.60;2329.60;;;;;;5013872;28;20057;-83
2021/09/04 03:45:45;;;;;;;12.55;7.80;;;333.70;2329.60;;;;;;5013470;28;20399;-82
2021/09/04 03:48:11;;;;;;;11.80;6.88;;;333.70;2329.60;;;;;;5013784;28;20049;-81
2021/09/04 03:50:36;;;;;;;9.45;6.80;;;333.70;2329.60;;;;;;5013867;28;20088;-83
2021/09/04 03:53:02;;;;;;;11.15;6.18;;;333.70;2329.60;;;;;;5013289;28;20057;-82
2021/09/04 03:55:28;;;;;;;11.13;6.93;;;333.60;2329.60;;;;;;5013526;28;20117;-81
2021/09/04 03:57:54;;;;;;;10.48;6.55;;;358.40;2329.60;;;;;;5013640;28;20029;-81
2021/09/04 04:00:20;;;;;;;9.63;6.82;;;358.40;2329.60;;;;;;5013441;28;20033;-82
2021/09/04 04:02:46;;;;;;;8.88;6.00;;;358.50;2329.60;;;;;;5012646;28;20026;-81
2021/09/04 04:05:12;;;;;;;10.13;6.78;;;358.50;2329.60;;;;;;5013558;28;20036;-81
2021/09/04 04:07:40;;;;;;;10.43;5.82;;;358.60;2329.60;;;;;;5013181;28;20113;-83
2021/09/04 04:10:07;;;;;;;7.85;6.50;;;358.50;2329.60;;;;;;5013474;28;20037;-82
2021/09/04 04:12:34;;;;;;;10.60;6.90;;;358.40;2329.60;;;;;;5013499;28;20033;-82
2021/09/04 04:15:00;;;;;;;9.65;6.60;;;333.10;2329.60;;;;;;5013350;28;20033;-84
2021/09/04 04:17:26;;;;;;;10.20;6.30;;;333.40;2329.60;;;;;;5013555;28;20026;-82
2021/09/04 04:19:54;;;;;;;11.82;6.22;;;333.40;2329.60;;;;;;5013298;28;20064;-82
2021/09/04 04:22:20;;;;;;;10.13;6.80;;;333.40;2329.60;;;;;;5013139;28;20084;-79
2021/09/04 04:24:46;;;;;;;11.68;7.43;;;333.30;2329.60;;;;;;5013010;28;20037;-81
2021/09/04 04:27:12;;;;;;;17.02;13.85;;;333.20;2329.60;;;;;;5013043;28;20030;-83
2021/09/04 04:29:38;;;;;;;23.73;19.25;;;333.10;2329.60;;;;;;5012841;28;20398;-82
2021/09/04 04:32:05;;;;;;;34.40;26.42;;;333.20;2329.60;;;;;;5013015;28;20088;-82
2021/09/04 04:34:31;;;;;;;39.78;25.38;;;333.20;2329.60;;;;;;5012826;28;20100;-83
2021/09/04 04:36:57;;;;;;;39.90;29.38;;;333.20;2329.60;;;;;;5013000;28;20021;-83
2021/09/04 04:39:23;;;;;;;44.42;29.45;;;333.00;2329.60;;;;;;5012913;28;20550;-82
2021/09/04 04:41:52;;;;;;;35.58;27.20;;;333.00;2329.60;;;;;;5012503;28;20030;-83
2021/09/04 04:44:20;;;;;;;31.73;25.08;;;333.00;2329.60;;;;;;5012564;28;20025;-80
2021/09/04 04:46:55;;;;;;;28.52;19.58;;;332.80;2329.60;;;;;;5012753;28;20022;-82
2021/09/04 04:49:24;;;;;;;19.23;16.15;;;333.00;2329.60;;;;;;5012426;28;20026;-81
2021/09/04 04:51:53;;;;;;;20.48;14.38;;;333.10;2329.60;;;;;;5012848;28;20022;-82
2021/09/04 04:54:19;;;;;;;18.33;13.80;;;333.10;2329.60;;;;;;5012542;28;20034;-83
2021/09/04 04:56:45;;;;;;;19.60;12.95;;;332.90;2329.60;;;;;;5012636;28;20022;-80
2021/09/04 04:59:11;;;;;;;13.98;10.95;;;333.00;2329.60;;;;;;5012768;28;20092;-82
2021/09/04 05:01:37;;;;;;;15.38;10.73;;;333.10;2329.60;;;;;;5013057;28;20028;-82
2021/09/04 05:04:06;;;;;;;15.88;10.32;;;333.20;2329.60;;;;;;5012491;28;20034;-80
2021/09/04 05:06:40;;;;;;;14.48;8.98;;;332.80;2329.60;;;;;;5012619;28;20374;-84
2021/09/04 05:09:09;;;;;;;12.10;8.82;;;332.90;2329.60;;;;;;5012544;28;20053;-82
2021/09/04 05:11:45;;;;;;;11.38;8.65;;;333.00;2329.60;;;;;;5013218;28;20033;-79
2021/09/04 05:14:11;;;;;;;10.05;7.35;;;333.00;2329.60;;;;;;5014690;28;20381;-82
2021/09/04 05:16:36;;;;;;;13.07;8.05;;;333.10;2329.60;;;;;;5016515;28;20032;-82
2021/09/04 05:19:05;;;;;;;13.15;8.10;;;333.00;2329.60;;;;;;5016556;28;20026;-81
2021/09/04 05:21:32;;;;;;;14.40;8.15;;;333.00;2329.60;;;;;;5016675;28;20030;-81
2021/09/04 05:24:01;;;;;;;12.88;7.68;;;333.20;2329.60;;;;;;5016165;28;20030;-80
2021/09/04 05:26:27;;;;;;;14.95;8.75;;;333.20;2329.60;;;;;;5016571;28;20033;-82
2021/09/04 05:29:14;;;;;;;16.58;8.32;;;333.30;2329.60;;;;;;5016516;28;20065;-81
2021/09/04 05:31:50;;;;;;;16.67;9.57;;;333.40;2329.60;;;;;;5015569;28;20029;-81
2021/09/04 05:34:21;;;;;;;20.33;10.45;;;333.50;2329.60;;;;;;5016431;28;20038;-79
2021/09/04 05:36:47;;;;;;;22.60;10.65;;;333.70;2329.60;;;;;;5016521;28;20034;-83
2021/09/04 05:39:13;;;;;;;31.98;12.60;;;333.70;2329.60;;;;;;5016343;28;20172;-83
2021/09/04 05:41:39;;;;;;;22.58;13.18;;;358.50;2329.60;;;;;;5016182;28;20037;-79
2021/09/04 05:44:05;;;;;;;22.85;13.77;;;358.50;2329.60;;;;;;5015903;28;20030;-82
2021/09/04 05:46:32;;;;;;;22.50;14.63;;;358.50;2329.60;;;;;;5016194;28;20382;-82
2021/09/04 05:49:01;;;;;;;22.95;14.80;;;358.50;2329.60;;;;;;5016142;28;20061;-80
2021/09/04 05:51:27;;;;;;;20.63;14.52;;;358.60;2329.60;;;;;;5015807;28;20026;-83
2021/09/04 05:53:53;;;;;;;19.42;11.73;;;358.70;2329.60;;;;;;5016123;28;20458;-81
2021/09/04 05:56:31;;;;;;;15.68;9.75;;;358.70;2329.60;;;;;;5016076;28;20030;-80
2021/09/04 05:58:59;;;;;;;13.40;8.88;;;358.70;2329.60;;;;;;5015780;28;20033;-82
2021/09/04 06:01:25;;;;;;;14.13;8.85;;;358.80;2329.60;;;;;;5015827;28;20037;-82
2021/09/04 06:03:51;;;;;;;11.95;8.13;;;358.90;2329.60;;;;;;5015760;28;20030;-84
2021/09/04 06:06:17;;;;;;;13.25;9.00;;;359.00;2329.60;;;;;;5015393;28;20056;-81
2021/09/04 06:08:43;;;;;;;15.18;8.30;;;358.80;2329.60;;;;;;5015652;28;20033;-81
2021/09/04 06:11:09;;;;;;;16.35;9.35;;;358.90;2329.60;;;;;;5015533;28;20030;-81
2021/09/04 06:13:34;;;;;;;16.15;9.90;;;358.90;2329.60;;;;;;5015207;28;20128;-82
2021/09/04 06:16:00;;;;;;;14.00;10.65;;;359.00;2329.60;;;;;;5015717;28;20037;-79
2021/09/04 06:18:29;;;;;;;19.58;12.43;;;359.10;2329.60;;;;;;5015139;28;20030;-79
2021/09/04 06:20:55;;;;;;;18.95;12.68;;;359.00;2329.60;;;;;;5014651;28;20449;-81
2021/09/04 06:23:21;;;;;;;23.98;13.15;;;359.30;2329.60;;;;;;5015124;28;20041;-81
2021/09/04 06:25:47;;;;;;;17.92;11.90;;;384.00;2329.60;;;;;;5014088;28;20331;-78
2021/09/04 06:28:13;;;;;;;18.75;12.48;;;384.10;2329.60;;;;;;5015205;28;20487;-81
2021/09/04 06:30:39;;;;;;;15.50;11.18;;;384.30;2329.60;;;;;;5015539;28;20034;-83
2021/09/04 06:33:05;;;;;;;16.95;10.15;;;384.50;2329.60;;;;;;5014538;28;20041;-81
2021/09/04 06:35:30;;;;;;;15.25;11.52;;;384.50;2329.60;;;;;;5015701;28;20022;-82
2021/09/04 06:37:56;;;;;;;11.38;8.88;;;384.50;2329.60;;;;;;5015032;28;20026;-83
2021/09/04 06:40:22;;;;;;;14.68;8.55;;;384.70;2329.60;;;;;;5015030;28;20389;-79
2021/09/04 06:42:48;;;;;;;15.85;9.02;;;384.90;2329.60;;;;;;5015544;28;20047;-83
2021/09/04 06:45:14;;;;;;;13.60;8.43;;;409.60;2355.20;;;;;;5015941;28;20069;-81
2021/09/04 06:47:39;;;;;;;12.90;9.18;;;409.80;2355.20;;;;;;5014974;28;20138;-83
2021/09/04 06:50:06;;;;;;;11.77;8.70;;;410.00;2355.20;;;;;;5014533;28;20104;-82
2021/09/04 06:52:31;;;;;;;12.35;8.48;;;410.00;2355.20;;;;;;5014656;28;20492;-81
2021/09/04 06:54:57;;;;;;;12.70;8.07;;;410.30;2355.20;;;;;;5015915;28;20113;-82
2021/09/04 06:57:23;;;;;;;14.27;7.00;;;410.30;2355.20;;;;;;5015153;28;20466;-80
2021/09/04 06:59:49;;;;;;;13.98;7.20;;;410.40;2355.20;;;;;;5016473;28;20037;-79
2021/09/04 07:02:15;;;;;;;10.15;6.95;;;410.40;2355.20;;;;;;5014613;28;20029;-79
2021/09/04 07:04:41;;;;;;;11.93;8.07;;;410.50;2355.20;;;;;;5014660;28;20091;-79
2021/09/04 07:07:07;;;;;;;9.45;6.35;;;435.30;2355.20;;;;;;5014878;28;20107;-79
2021/09/04 07:09:33;;;;;;;10.15;6.85;;;435.40;2355.20;;;;;;5015190;28;20061;-81
2021/09/04 07:12:00;;;;;;;8.40;6.20;;;435.50;2355.20;;;;;;5014933;28;20025;-80
2021/09/04 07:14:25;;;;;;;9.90;5.80;;;435.60;2355.20;;;;;;5015936;28;20050;-79
2021/09/04 07:16:51;;;;;;;9.90;5.97;;;435.70;2355.20;;;;;;5014973;28;20113;-78
2021/09/04 07:19:17;;;;;;;8.48;5.75;;;435.90;2355.20;;;;;;5014852;28;20176;-81
2021/09/04 07:21:44;;;;;;;9.73;6.30;;;436.10;2355.20;;;;;;5014721;28;20109;-80
2021/09/04 07:24:10;;;;;;;10.23;6.82;;;460.80;2380.80;;;;;;5014400;28;20030;-80
2021/09/04 07:26:35;;;;;;;14.80;8.23;;;460.80;2380.80;;;;;;5014249;28;20382;-79
2021/09/04 07:29:01;;;;;;;18.73;8.80;;;460.90;2380.80;;;;;;5014849;28;20065;-78
2021/09/04 07:31:27;;;;;;;14.60;9.57;;;460.90;2380.80;;;;;;5014394;28;20033;-80
2021/09/04 07:33:53;;;;;;;17.95;10.02;;;461.00;2380.80;;;;;;5014131;28;20489;-81
2021/09/04 07:36:19;;;;;;;16.05;8.48;;;461.10;2380.80;;;;;;5015027;28;20101;-77
2021/09/04 07:38:44;;;;;;;13.48;7.30;;;461.10;2380.80;;;;;;5014289;28;20025;-80
2021/09/04 07:41:10;;;;;;;12.90;8.15;;;461.40;2380.80;;;;;;5015554;28;20021;-81
2021/09/04 07:43:36;;;;;;;11.75;7.78;;;461.40;2380.80;;;;;;5015077;28;20097;-79
2021/09/04 07:46:02;;;;;;;10.27;7.57;;;461.60;2380.80;;;;;;5014220;28;20083;-79
2021/09/04 07:48:28;;;;;;;10.35;6.93;;;486.40;2380.80;;;;;;5014928;28;20030;-80
2021/09/04 07:50:54;;;;;;;9.18;6.22;;;486.40;2380.80;;;;;;5013828;28;20034;-78
2021/09/04 07:53:20;;;;;;;10.85;7.15;;;486.50;2380.80;;;;;;5013996;28;20462;-79
2021/09/04 07:55:46;;;;;;;11.95;7.50;;;486.60;2380.80;;;;;;5013822;28;20569;-78
2021/09/04 07:58:12;;;;;;;12.20;6.45;;;486.80;2380.80;;;;;;5013393;28;20490;-79
2021/09/04 08:00:38;;;;;;;12.38;8.18;;;487.00;2380.80;;;;;;5013884;28;20034;-79
2021/09/04 08:03:04;;;;;;;13.13;7.68;;;487.10;2380.80;;;;;;5014743;28;20069;-79
2021/09/04 08:05:30;;;;;;;9.10;6.60;;;487.30;2380.80;;;;;;5014501;28;20026;-79
2021/09/04 08:07:56;;;;;;;9.15;6.57;;;512.00;2380.80;;;;;;5013472;28;20073;-78
2021/09/04 08:10:21;;;;;;;13.77;5.80;;;512.20;2380.80;;;;;;5013639;28;20030;-79
2021/09/04 08:12:47;;;;;;;8.80;5.95;;;512.20;2380.80;;;;;;5012831;28;20030;-78
2021/09/04 08:15:13;;;;;;;10.57;5.90;;;512.30;2380.80;;;;;;5013433;28;20052;-78
2021/09/04 08:17:39;;;;;;;10.43;5.72;;;512.50;2380.80;;;;;;5014720;28;20442;-77
2021/09/04 08:20:06;;;;;;;12.68;6.75;;;512.50;2380.80;;;;;;5014465;28;20088;-78
2021/09/04 08:22:31;;;;;;;13.63;5.95;;;512.60;2380.80;;;;;;5013407;28;20030;-79
2021/09/04 08:24:57;;;;;;;10.20;6.13;;;512.80;2380.80;;;;;;5013108;28;20363;-79
2021/09/04 08:27:23;;;;;;;12.48;6.43;;;512.80;2380.80;;;;;;5013374;28;20029;-78
2021/09/04 08:29:49;;;;;;;11.27;5.80;;;537.60;2406.40;;;;;;5012924;28;20085;-78
2021/09/04 08:32:15;;;;;;;10.23;4.85;;;537.80;2406.40;;;;;;5014300;28;20029;-79
2021/09/04 08:34:42;;;;;;;9.68;6.00;;;537.90;2406.40;;;;;;5014596;28;20105;-78
2021/09/04 08:37:08;;;;;;;13.57;9.82;;;538.00;2406.40;;;;;;5013208;28;20026;-79
2021/09/04 08:39:34;;;;;;;8.85;7.13;;;538.10;2406.40;;;;;;5012824;28;20026;-80
2021/09/04 08:42:00;;;;;;;10.05;5.93;;;538.10;2406.40;;;;;;5013123;28;20032;-78
2021/09/04 08:44:25;;;;;;;15.98;10.85;;;538.30;2406.40;;;;;;5014599;28;20460;-79
2021/09/04 08:46:51;;;;;;;10.60;7.35;;;538.50;2406.40;;;;;;5012782;28;20025;-79
2021/09/04 08:49:20;;;;;;;13.98;7.35;;;563.20;2432.00;;;;;;5012630;28;20026;-77
2021/09/04 08:51:47;;;;;;;9.80;7.13;;;563.40;2432.00;;;;;;5014461;28;20053;-78
2021/09/04 08:54:13;;;;;;;12.63;8.98;;;563.50;2432.00;;;;;;5012803;28;20076;-79
2021/09/04 08:56:40;;;;;;;19.10;12.45;;;563.50;2432.00;;;;;;5012539;28;20084;-78
2021/09/04 08:59:06;;;;;;;11.68;7.22;;;563.40;2432.00;;;;;;5014144;28;20018;-81
2021/09/04 09:01:32;;;;;;;10.27;6.03;;;563.50;2432.00;;;;;;5013014;28;20033;-78
2021/09/04 09:04:04;;;;;;;10.25;8.07;;;563.60;2432.00;;;;;;5012443;28;20121;-77
2021/09/04 09:06:38;;;;;;;12.48;9.20;;;563.60;2406.40;;;;;;5012957;28;20057;-77
2021/09/04 09:09:22;;;;;;;9.68;5.90;;;563.70;2380.80;;;;;;5012770;28;20377;-78
2021/09/04 09:11:56;;;;;;;22.92;18.35;;;563.90;2380.80;;;;;;5012627;28;20084;-79
2021/09/04 09:14:28;;;;;;;12.68;10.35;;;564.10;2380.80;;;;;;5014084;28;20577;-78
2021/09/04 09:16:56;;;;;;;11.80;6.10;;;564.10;2278.40;;;;;;5014057;28;20022;-78
2021/09/04 09:19:29;;;;;;;7.95;4.80;;;588.90;2329.60;;;;;;5012418;28;20060;-78
2021/09/04 09:21:59;;;;;;;9.05;5.95;;;589.10;2278.40;;;;;;5012798;28;20037;-79
2021/09/04 09:24:27;;;;;;;12.10;8.27;;;589.00;2278.40;;;;;;5012874;28;20036;-78
2021/09/04 09:27:01;;;;;;;11.23;7.18;;;589.10;2278.40;;;;;;5012263;28;20025;-78
2021/09/04 09:29:35;;;;;;;9.30;5.03;;;589.20;2304.00;;;;;;5013700;28;20060;-79
2021/09/04 09:32:04;;;;;;;7.30;4.93;;;589.40;2278.40;;;;;;5012154;28;20109;-78
2021/09/04 09:34:31;;;;;;;6.55;4.50;;;589.40;2227.20;;;;;;5012595;28;20569;-79
2021/09/04 09:36:59;;;;;;;9.77;5.50;;;589.50;2176.00;;;;;;5012643;28;20512;-79
2021/09/04 09:39:35;;;;;;;10.48;6.25;;;589.50;2201.60;;;;;;5012176;28;20030;-79
2021/09/04 09:42:02;;;;;;;9.43;4.80;;;589.50;2176.00;;;;;;5013935;28;20373;-79
2021/09/04 09:44:31;;;;;;;9.95;7.30;;;589.70;2124.80;;;;;;5012479;28;20030;-78
2021/09/04 09:46:59;;;;;;;6.88;5.00;;;614.50;2124.80;;;;;;5012078;28;20462;-80
2021/09/04 09:49:26;;;;;;;12.48;7.20;;;614.60;2073.60;;;;;;5012275;28;20030;-78
2021/09/04 09:51:57;;;;;;;12.10;5.97;;;614.80;2099.20;;;;;;5012449;28;20057;-78
2021/09/04 09:54:26;;;;;;;10.95;6.75;;;614.80;2073.60;;;;;;5012326;28;20034;-79
2021/09/04 09:56:57;;;;;;;15.30;9.63;;;615.10;2048.00;;;;;;5013827;28;20026;-78
2021/09/04 09:59:26;;;;;;;15.20;10.40;;;640.00;2022.40;;;;;;5012831;28;20116;-78
2021/09/04 10:01:54;;;;;;;12.15;7.57;;;640.10;1971.20;;;;;;5016907;28;20080;-79
2021/09/04 10:04:24;;;;;;;8.07;4.90;;;640.10;1945.60;;;;;;5015805;28;20478;-80
2021/09/04 10:06:50;;;;;;;13.25;8.15;;;640.30;1920.00;;;;;;5015985;28;20038;-80
2021/09/04 10:09:16;;;;;;;10.45;6.68;;;640.60;1894.40;;;;;;5015657;28;20025;-77
2021/09/04 10:11:42;;;;;;;7.53;5.38;;;640.90;1894.40;;;;;;5015660;28;20030;-80
2021/09/04 10:14:08;;;;;;;9.25;5.50;;;665.60;1920.00;;;;;;5015372;28;20033;-80
2021/09/04 10:16:34;;;;;;;7.07;4.55;;;665.60;1868.80;;;;;;5017675;28;20105;-80
2021/09/04 10:19:01;;;;;;;10.65;5.13;;;665.60;1868.80;;;;;;5016138;28;20022;-79
2021/09/04 10:21:27;;;;;;;7.45;4.47;;;665.80;1843.20;;;;;;5016130;28;20026;-78
2021/09/04 10:23:54;;;;;;;11.57;4.72;;;665.90;1843.20;;;;;;5015582;28;20101;-79
2021/09/04 10:26:28;;;;;;;8.15;4.93;;;665.90;1843.20;;;;;;5015693;28;20076;-79
2021/09/04 10:29:01;;;;;;;7.03;4.10;;;666.10;1843.20;;;;;;5015624;28;20046;-78
2021/09/04 10:31:48;;;;;;;;;;;666.20;1843.20;;;;;;5015842;28;20049;-78
2021/09/04 10:34:23;;;;;;;8.23;4.20;;;666.50;1792.00;;;;;;5015384;28;19968;-79
2021/09/04 10:37:07;;;;;;;5.60;4.05;;;691.20;1792.00;;;;;;5016291;28;20026;-80
2021/09/04 10:39:46;;;;;;;7.38;4.88;;;691.20;1766.40;;;;;;5015589;28;20126;-78
2021/09/04 10:42:15;;;;;;;8.80;6.88;;;691.60;1766.40;;;;;;5014973;28;20033;-80
2021/09/04 10:44:47;;;;;;;13.18;7.18;;;691.90;1740.80;;;;;;5015399;28;20037;-82
2021/09/04 10:47:13;;;;;;;9.85;6.47;;;692.10;1766.40;;;;;;5015560;28;20048;-79
2021/09/04 10:49:44;;;;;;;8.35;5.13;;;717.10;1740.80;;;;;;5014879;28;20477;-79
2021/09/04 10:52:10;;;;;;;15.73;5.90;;;717.10;1715.20;;;;;;5016565;28;20409;-77
2021/09/04 10:54:51;;;;;;;6.85;4.40;;;717.30;1715.20;;;;;;5014780;28;20482;-79
2021/09/04 10:57:19;;;;;;;6.53;4.72;;;717.30;1664.00;;;;;;5016035;28;20536;-79
2021/09/04 11:00:08;;;;;;;5.88;4.13;;;717.40;1664.00;;;;;;5015739;28;20381;-79
2021/09/04 11:02:44;;;;;;;8.60;4.18;;;717.50;1638.40;;;;;;5015890;28;20026;-78
2021/09/04 11:05:34;;;;;;;11.90;5.97;;;742.40;1664.00;;;;;;5015081;28;20026;-80
2021/09/04 11:08:05;;;;;;;7.05;3.95;;;742.40;1664.00;;;;;;5014927;28;20061;-78
2021/09/04 11:10:32;;;;;;;5.35;3.78;;;717.50;1638.40;;;;;;5014643;28;20417;-79
2021/09/04 11:13:13;;;;;;;7.80;4.75;;;717.60;1638.40;;;;;;5014311;28;20085;-80
2021/09/04 11:15:44;;;;;;;5.75;4.13;;;742.60;1664.00;;;;;;5015166;28;20528;-80
2021/09/04 11:18:15;;;;;;;6.97;4.03;;;742.80;1638.40;;;;;;5015071;28;20497;-78
2021/09/04 11:20:52;;;;;;;7.68;4.22;;;742.80;1587.20;;;;;;5015130;28;20030;-78
2021/09/04 11:23:26;;;;;;;7.22;3.78;;;743.00;1612.80;;;;;;5014897;28;20030;-78
2021/09/04 11:25:52;;;;;;;7.28;4.53;;;742.80;1587.20;;;;;;5014155;28;20030;-77
2021/09/04 11:28:29;;;;;;;10.73;4.68;;;742.90;1612.80;;;;;;5025689;28;20068;-75
2021/09/04 11:30:56;;;;;;;8.30;6.00;;;743.10;1587.20;;;;;;5018777;28;20029;-77
2021/09/04 11:33:21;;;;;;;7.80;6.03;;;743.30;1587.20;;;;;;5016462;28;20038;-77
2021/09/04 11:35:48;;;;;;;9.48;6.65;;;768.00;1561.60;;;;;;5016039;28;20120;-79
2021/09/04 11:38:15;;;;;;;9.52;7.40;;;768.40;1561.60;;;;;;5017353;28;20458;-79
2021/09/04 11:40:42;;;;;;;7.95;5.57;;;768.60;1536.00;;;;;;5019401;28;20032;-78
2021/09/04 11:43:08;;;;;;;8.35;5.82;;;768.60;1561.60;;;;;;5016022;28;20030;-78
2021/09/04 11:45:34;;;;;;;7.38;4.93;;;768.40;1510.40;;;;;;5014026;28;20458;-80
2021/09/04 11:48:12;;;;;;;6.55;4.45;;;768.50;1536.00;;;;;;5014306;28;20029;-79
2021/09/04 11:50:38;;;;;;;5.43;3.90;;;768.60;1510.40;;;;;;5014104;28;20421;-80
2021/09/04 11:53:14;;;;;;;7.55;4.90;;;768.60;1484.80;;;;;;5014190;28;20094;-79
2021/09/04 11:55:40;;;;;;;6.97;3.92;;;768.60;1484.80;;;;;;5015256;28;20080;-80
2021/09/04 11:58:11;;;;;;;8.05;4.15;;;768.60;1536.00;;;;;;5015497;28;20462;-78
2021/09/04 12:00:42;;;;;;;7.73;3.77;;;768.90;1510.40;;;;;;5013489;28;20031;-78
2021/09/04 12:03:10;;;;;;;5.55;4.13;;;768.90;1510.40;;;;;;5014161;28;20041;-81
2021/09/04 12:05:41;;;;;;;4.93;3.75;;;793.70;1510.40;;;;;;5013919;28;20112;-80
2021/09/04 12:08:30;;;;;;;5.07;3.67;;;793.80;1484.80;;;;;;5015566;28;20029;-80
2021/09/04 12:11:04;;;;;;;6.43;4.03;;;793.70;1484.80;;;;;;5015203;28;20042;-79
2021/09/04 12:13:31;;;;;;;6.57;3.75;;;793.90;1510.40;;;;;;5013995;28;20077;-83